createdAt,value
2017-09-18T00:01:53.542Z,58.00
2017-09-18T00:04:27.102Z,58.00
2017-09-18T00:07:00.722Z,58.10
2017-09-18T00:09:34.414Z,58.20
2017-09-18T00:12:08.755Z,58.70
2017-09-18T00:14:42.294Z,58.40
2017-09-18T00:17:15.873Z,58.20
2017-09-18T00:19:50.246Z,58.00
2017-09-18T00:22:23.828Z,58.00
2017-09-18T00:24:57.383Z,58.00
2017-09-18T00:27:31.087Z,57.90
2017-09-18T00:30:04.592Z,58.00
2017-09-18T00:32:38.293Z,58.00
2017-09-18T00:35:11.942Z,58.00
2017-09-18T00:37:45.541Z,57.80
2017-09-18T00:40:19.029Z,57.60
2017-09-18T00:42:52.701Z,57.70
2017-09-18T00:45:27.006Z,57.60
2017-09-18T00:48:00.606Z,57.60
2017-09-18T00:50:34.198Z,57.60
2017-09-18T00:53:07.730Z,57.50
2017-09-18T00:55:41.346Z,57.30
2017-09-18T00:58:15.101Z,58.00
2017-09-18T01:00:48.817Z,57.70
2017-09-18T01:03:22.431Z,57.40
2017-09-18T01:05:56.594Z,57.50
2017-09-18T01:08:30.126Z,57.60
2017-09-18T01:11:03.665Z,57.40
2017-09-18T01:13:37.338Z,57.60
2017-09-18T01:16:11.145Z,57.40
2017-09-18T01:18:44.839Z,57.60
2017-09-18T01:21:18.641Z,57.40
2017-09-18T01:23:52.342Z,57.40
2017-09-18T01:26:26.047Z,57.50
2017-09-18T01:28:59.654Z,57.60
2017-09-18T01:31:33.123Z,57.60
2017-09-18T01:34:06.723Z,57.60
2017-09-18T01:36:40.305Z,57.70
2017-09-18T01:39:13.906Z,57.70
2017-09-18T01:41:47.954Z,57.80
2017-09-18T01:44:22.250Z,57.40
2017-09-18T01:46:55.982Z,57.40
2017-09-18T01:49:29.689Z,57.70
2017-09-18T01:52:03.590Z,57.70
2017-09-18T01:54:37.382Z,57.60
2017-09-18T01:57:11.102Z,57.70
2017-09-18T01:59:44.682Z,57.50
2017-09-18T02:02:18.276Z,57.30
2017-09-18T02:04:51.954Z,57.40
2017-09-18T02:07:26.189Z,57.30
2017-09-18T02:09:59.913Z,57.30
2017-09-18T02:12:33.522Z,57.40
2017-09-18T02:15:06.998Z,57.30
2017-09-18T02:17:41.230Z,57.10
2017-09-18T02:20:14.931Z,57.00
2017-09-18T02:22:48.843Z,57.00
2017-09-18T02:25:22.562Z,57.20
2017-09-18T02:27:57.803Z,57.20
2017-09-18T02:30:31.393Z,57.20
2017-09-18T02:33:05.180Z,57.30
2017-09-18T02:35:38.798Z,57.40
2017-09-18T02:38:12.500Z,57.60
2017-09-18T02:40:45.982Z,57.40
2017-09-18T02:43:19.605Z,57.40
2017-09-18T02:45:53.174Z,57.30
2017-09-18T02:48:27.139Z,57.30
2017-09-18T02:51:00.915Z,57.20
2017-09-18T02:53:34.520Z,57.10
2017-09-18T02:56:08.015Z,57.00
2017-09-18T02:58:41.505Z,57.10
2017-09-18T03:01:15.117Z,57.10
2017-09-18T03:03:48.693Z,57.20
2017-09-18T03:06:22.271Z,57.20
2017-09-18T03:08:55.782Z,57.10
2017-09-18T03:11:29.401Z,57.20
2017-09-18T03:14:02.924Z,57.00
2017-09-18T03:16:36.629Z,56.80
2017-09-18T03:19:10.233Z,56.90
2017-09-18T03:21:43.825Z,56.80
2017-09-18T03:24:17.539Z,57.00
2017-09-18T03:26:51.139Z,56.90
2017-09-18T03:29:24.724Z,56.70
2017-09-18T03:31:59.225Z,56.30
2017-09-18T03:34:33.634Z,56.20
2017-09-18T03:37:07.473Z,56.20
2017-09-18T03:39:42.586Z,56.60
2017-09-18T03:42:16.165Z,56.60
2017-09-18T03:44:49.759Z,56.70
2017-09-18T03:47:23.306Z,56.30
2017-09-18T03:49:56.869Z,56.30
2017-09-18T03:52:30.383Z,56.70
2017-09-18T03:55:03.965Z,56.80
2017-09-18T03:57:37.502Z,57.20
2017-09-18T04:00:10.950Z,57.20
2017-09-18T04:02:44.634Z,57.10
2017-09-18T04:05:18.186Z,56.70
2017-09-18T04:07:51.801Z,56.80
2017-09-18T04:10:25.365Z,56.60
2017-09-18T04:12:58.855Z,56.60
2017-09-18T04:15:32.407Z,56.70
2017-09-18T04:18:06.210Z,56.80
2017-09-18T04:20:40.526Z,56.40
2017-09-18T04:23:14.086Z,56.40
2017-09-18T04:25:47.787Z,56.40
2017-09-18T04:28:21.475Z,56.40
2017-09-18T04:30:55.142Z,56.40
2017-09-18T04:33:28.937Z,56.50
2017-09-18T04:36:02.655Z,56.40
2017-09-18T04:38:36.238Z,56.70
2017-09-18T04:41:09.914Z,56.80
2017-09-18T04:43:44.825Z,57.00
2017-09-18T04:46:18.683Z,56.60
2017-09-18T04:48:52.130Z,56.90
2017-09-18T04:51:25.655Z,57.00
2017-09-18T04:53:59.241Z,57.00
2017-09-18T04:56:32.883Z,57.00
2017-09-18T04:59:06.590Z,57.30
2017-09-18T05:01:40.366Z,57.60
2017-09-18T05:04:13.989Z,57.30
2017-09-18T05:06:47.644Z,57.70
2017-09-18T05:09:21.418Z,57.70
2017-09-18T05:11:55.107Z,57.80
2017-09-18T05:14:28.810Z,57.90
2017-09-18T05:17:02.316Z,57.90
2017-09-18T05:19:36.506Z,58.00
2017-09-18T05:22:10.167Z,58.00
2017-09-18T05:24:44.133Z,57.90
2017-09-18T05:27:18.034Z,57.80
2017-09-18T05:29:52.292Z,58.10
2017-09-18T05:32:26.754Z,58.40
2017-09-18T05:35:00.876Z,58.40
2017-09-18T05:37:34.687Z,58.60
2017-09-18T05:40:08.274Z,58.70
2017-09-18T05:42:41.898Z,59.00
2017-09-18T05:45:15.500Z,59.20
2017-09-18T05:47:49.805Z,59.50
2017-09-18T05:50:23.354Z,59.50
2017-09-18T05:52:57.113Z,59.80
2017-09-18T05:55:30.669Z,60.50
2017-09-18T05:58:04.214Z,60.70
2017-09-18T06:00:37.734Z,60.70
2017-09-18T06:03:11.502Z,60.80
2017-09-18T06:05:45.084Z,60.80
2017-09-18T06:08:18.718Z,61.00
2017-09-18T06:10:52.834Z,61.00
2017-09-18T06:13:27.362Z,60.80
2017-09-18T06:16:01.069Z,60.80
2017-09-18T06:18:34.550Z,61.00
2017-09-18T06:21:08.102Z,60.70
2017-09-18T06:23:41.857Z,60.90
2017-09-18T06:26:16.238Z,61.00
2017-09-18T06:28:49.885Z,61.50
2017-09-18T06:31:23.586Z,61.40
2017-09-18T06:33:57.170Z,61.70
2017-09-18T06:36:30.746Z,61.50
2017-09-18T06:39:04.241Z,61.60
2017-09-18T06:41:37.862Z,61.60
2017-09-18T06:44:11.689Z,61.50
2017-09-18T06:46:46.114Z,61.90
2017-09-18T06:49:19.819Z,61.90
2017-09-18T06:51:53.622Z,62.10
2017-09-18T06:54:27.222Z,62.10
2017-09-18T06:57:00.822Z,62.20
2017-09-18T06:59:34.403Z,62.20
2017-09-18T07:02:08.026Z,62.40
2017-09-18T07:04:41.725Z,62.60
2017-09-18T07:07:16.042Z,62.60
2017-09-18T07:09:49.646Z,62.50
2017-09-18T07:12:23.211Z,62.50
2017-09-18T07:14:56.849Z,62.50
2017-09-18T07:17:31.228Z,63.80
2017-09-18T07:20:04.946Z,63.20
2017-09-18T07:22:38.545Z,63.10
2017-09-18T07:25:12.134Z,62.90
2017-09-18T07:27:45.775Z,62.90
2017-09-18T07:30:19.418Z,62.80
2017-09-18T07:32:53.080Z,63.00
2017-09-18T07:35:26.634Z,62.80
2017-09-18T07:38:00.690Z,62.80
2017-09-18T07:40:34.604Z,62.80
2017-09-18T07:43:08.180Z,62.80
2017-09-18T07:45:41.803Z,63.00
2017-09-18T07:48:15.488Z,63.00
2017-09-18T07:50:49.111Z,63.20
2017-09-18T07:53:22.624Z,63.00
2017-09-18T07:55:56.306Z,63.10
2017-09-18T07:58:29.961Z,63.00
2017-09-18T08:01:03.577Z,63.40
2017-09-18T08:03:37.105Z,63.20
2017-09-18T08:06:10.706Z,63.10
2017-09-18T08:08:44.408Z,63.20
2017-09-18T08:11:18.114Z,63.20
2017-09-18T08:13:52.615Z,63.80
2017-09-18T08:16:26.445Z,64.00
2017-09-18T08:19:00.038Z,63.90
2017-09-18T08:21:33.481Z,63.70
2017-09-18T08:24:07.665Z,63.30
2017-09-18T08:26:41.266Z,64.00
2017-09-18T08:29:14.764Z,63.70
2017-09-18T08:31:48.368Z,63.40
2017-09-18T08:34:21.983Z,63.60
2017-09-18T08:36:55.547Z,63.60
2017-09-18T08:39:29.218Z,63.70
2017-09-18T08:42:03.442Z,63.50
2017-09-18T08:44:37.174Z,63.50
2017-09-18T08:47:10.881Z,63.30
2017-09-18T08:49:44.534Z,63.90
2017-09-18T08:52:18.146Z,63.90
2017-09-18T08:54:51.638Z,63.80
2017-09-18T08:57:25.514Z,64.00
2017-09-18T08:59:59.190Z,64.00
2017-09-18T09:02:32.686Z,64.30
2017-09-18T09:05:06.363Z,63.70
2017-09-18T09:07:39.893Z,63.80
2017-09-18T09:10:13.494Z,63.40
2017-09-18T09:12:47.093Z,63.60
2017-09-18T09:15:20.889Z,63.60
2017-09-18T09:17:54.390Z,63.90
2017-09-18T09:20:27.950Z,63.50
2017-09-18T09:23:01.568Z,63.30
2017-09-18T09:25:35.706Z,63.70
2017-09-18T09:28:09.389Z,63.30
2017-09-18T09:30:42.971Z,63.20
2017-09-18T09:33:17.463Z,63.00
2017-09-18T09:35:51.050Z,62.70
2017-09-18T09:38:25.338Z,62.50
2017-09-18T09:40:58.954Z,62.40
2017-09-18T09:43:33.271Z,62.20
2017-09-18T09:46:07.078Z,62.10
2017-09-18T09:48:40.684Z,61.60
2017-09-18T09:51:14.174Z,61.80
2017-09-18T09:53:47.873Z,62.00
2017-09-18T09:56:21.842Z,61.80
2017-09-18T09:58:55.467Z,61.80
2017-09-18T10:01:29.684Z,61.70
2017-09-18T10:04:03.199Z,61.70
2017-09-18T10:06:36.869Z,61.50
2017-09-18T10:09:10.497Z,61.90
2017-09-18T10:11:43.942Z,62.00
2017-09-18T10:14:17.588Z,61.90
2017-09-18T10:16:51.798Z,62.00
2017-09-18T10:19:25.266Z,61.90
2017-09-18T10:21:59.617Z,61.30
2017-09-18T10:24:33.357Z,61.60
2017-09-18T10:27:07.386Z,61.50
2017-09-18T10:29:41.316Z,61.70
2017-09-18T10:32:15.074Z,61.70
2017-09-18T10:34:49.333Z,61.60
2017-09-18T10:37:22.785Z,60.90
2017-09-18T10:39:56.284Z,60.80
2017-09-18T10:42:30.098Z,60.60
2017-09-18T10:45:03.807Z,60.40
2017-09-18T10:47:38.283Z,60.20
2017-09-18T10:50:11.798Z,60.20
2017-09-18T10:52:45.479Z,59.80
2017-09-18T10:55:18.985Z,59.90
2017-09-18T10:57:52.502Z,59.80
2017-09-18T11:00:26.142Z,59.90
2017-09-18T11:02:59.674Z,60.60
2017-09-18T11:05:33.190Z,59.50
2017-09-18T11:08:07.590Z,59.80
2017-09-18T11:10:41.801Z,59.20
2017-09-18T11:13:15.308Z,59.30
2017-09-18T11:15:48.933Z,59.60
2017-09-18T11:18:23.225Z,59.40
2017-09-18T11:20:57.437Z,59.40
2017-09-18T11:23:30.941Z,59.40
2017-09-18T11:26:04.578Z,59.20
2017-09-18T11:28:38.254Z,59.60
2017-09-18T11:31:12.649Z,59.00
2017-09-18T11:33:46.159Z,59.00
2017-09-18T11:36:19.801Z,59.10
2017-09-18T11:38:53.386Z,59.30
2017-09-18T11:41:26.906Z,59.20
2017-09-18T11:44:00.355Z,59.50
2017-09-18T11:46:33.862Z,59.80
2017-09-18T11:49:07.374Z,59.70
2017-09-18T11:51:40.957Z,59.40
2017-09-18T11:54:14.634Z,59.70
2017-09-18T11:56:48.090Z,59.80
2017-09-18T11:59:21.746Z,59.80
2017-09-18T12:01:55.262Z,59.80
2017-09-18T12:04:28.770Z,59.50
2017-09-18T12:07:03.188Z,59.00
2017-09-18T12:09:37.398Z,59.10
2017-09-18T12:12:11.606Z,58.20
2017-09-18T12:14:45.110Z,58.20
2017-09-18T12:17:18.627Z,58.60
2017-09-18T12:19:52.091Z,58.60
2017-09-18T12:22:25.525Z,58.20
2017-09-18T12:24:59.180Z,57.90
2017-09-18T12:27:32.690Z,57.60
2017-09-18T12:30:06.210Z,57.50
2017-09-18T12:32:39.721Z,57.20
2017-09-18T12:35:13.170Z,57.60
2017-09-18T12:37:46.675Z,57.60
2017-09-18T12:40:20.202Z,57.50
2017-09-18T12:42:53.818Z,57.70
2017-09-18T12:45:27.420Z,57.80
2017-09-18T12:48:00.871Z,58.10
2017-09-18T12:50:34.500Z,58.10
2017-09-18T12:53:08.150Z,58.90
2017-09-18T12:55:42.723Z,58.00
2017-09-18T12:58:16.667Z,57.40
2017-09-18T13:00:50.463Z,57.00
2017-09-18T13:03:24.067Z,56.70
2017-09-18T13:05:58.478Z,56.80
2017-09-18T13:08:32.287Z,56.80
2017-09-18T13:11:05.840Z,57.20
2017-09-18T13:13:39.386Z,56.60
2017-09-18T13:16:12.994Z,56.10
2017-09-18T13:18:47.374Z,56.90
2017-09-18T13:21:21.721Z,57.20
2017-09-18T13:23:55.186Z,57.10
2017-09-18T13:26:28.706Z,57.20
2017-09-18T13:29:02.146Z,57.00
2017-09-18T13:31:35.667Z,56.60
2017-09-18T13:34:09.182Z,55.80
2017-09-18T13:36:42.771Z,56.40
2017-09-18T13:39:16.219Z,56.10
2017-09-18T13:41:49.684Z,56.20
2017-09-18T13:44:23.881Z,56.00
2017-09-18T13:46:57.386Z,56.00
2017-09-18T13:49:31.030Z,56.30
2017-09-18T13:52:04.470Z,56.50
2017-09-18T13:54:38.070Z,56.60
2017-09-18T13:57:11.573Z,56.40
2017-09-18T13:59:45.014Z,55.80
2017-09-18T14:02:18.661Z,55.80
2017-09-18T14:04:52.095Z,55.80
2017-09-18T14:07:26.535Z,54.50
2017-09-18T14:09:59.978Z,54.50
2017-09-18T14:12:33.494Z,54.30
2017-09-18T14:15:06.934Z,54.70
2017-09-18T14:17:41.321Z,55.00
2017-09-18T14:20:14.865Z,54.90
2017-09-18T14:22:48.389Z,54.80
2017-09-18T14:25:21.898Z,55.00
2017-09-18T14:27:55.434Z,54.70
2017-09-18T14:30:29.055Z,54.80
2017-09-18T14:33:03.446Z,54.80
2017-09-18T14:35:37.066Z,54.80
2017-09-18T14:38:10.870Z,54.90
2017-09-18T14:40:44.694Z,54.80
2017-09-18T14:43:18.182Z,55.20
2017-09-18T14:45:51.879Z,55.40
2017-09-18T14:48:25.502Z,55.80
2017-09-18T14:50:58.936Z,56.00
2017-09-18T14:53:33.497Z,55.70
2017-09-18T14:56:08.018Z,55.80
2017-09-18T14:58:42.327Z,55.40
2017-09-18T15:01:15.838Z,55.30
2017-09-18T15:03:49.410Z,55.00
2017-09-18T15:06:23.114Z,54.20
2017-09-18T15:08:56.734Z,54.70
2017-09-18T15:11:31.236Z,54.60
2017-09-18T15:14:04.862Z,54.60
2017-09-18T15:16:38.423Z,55.20
2017-09-18T15:19:12.030Z,55.50
2017-09-18T15:21:45.766Z,54.80
2017-09-18T15:24:19.483Z,54.60
2017-09-18T15:26:53.442Z,54.70
2017-09-18T15:29:27.085Z,55.20
2017-09-18T15:32:01.203Z,55.10
2017-09-18T15:34:34.997Z,55.40
2017-09-18T15:37:08.613Z,55.70
2017-09-18T15:39:42.414Z,55.60
2017-09-18T15:42:15.878Z,55.70
2017-09-18T15:44:49.507Z,55.80
2017-09-18T15:47:23.109Z,55.50
2017-09-18T15:49:57.403Z,56.00
2017-09-18T15:52:30.932Z,56.00
2017-09-18T15:55:04.529Z,55.80
2017-09-18T15:57:38.206Z,55.00
2017-09-18T16:00:11.697Z,54.80
2017-09-18T16:02:45.339Z,55.10
2017-09-18T16:05:18.927Z,54.90
2017-09-18T16:07:52.437Z,54.80
2017-09-18T16:10:26.234Z,54.40
2017-09-18T16:12:59.838Z,55.20
2017-09-18T16:15:34.268Z,54.80
2017-09-18T16:18:07.802Z,54.80
2017-09-18T16:20:42.284Z,55.20
2017-09-18T16:23:16.022Z,55.10
2017-09-18T16:25:49.470Z,55.70
2017-09-18T16:28:23.042Z,55.50
2017-09-18T16:30:56.673Z,56.10
2017-09-18T16:33:30.277Z,56.40
2017-09-18T16:36:03.842Z,56.80
2017-09-18T16:38:37.530Z,56.40
2017-09-18T16:41:11.287Z,57.00
2017-09-18T16:43:44.994Z,56.80
2017-09-18T16:46:18.802Z,56.60
2017-09-18T16:48:52.390Z,57.30
2017-09-18T16:51:26.623Z,56.40
2017-09-18T16:54:00.282Z,56.60
2017-09-18T16:56:34.013Z,56.30
2017-09-18T16:59:07.717Z,56.00
2017-09-18T17:01:41.335Z,56.10
2017-09-18T17:04:14.715Z,56.40
2017-09-18T17:06:49.133Z,56.60
2017-09-18T17:09:23.246Z,56.60
2017-09-18T17:11:56.962Z,56.50
2017-09-18T17:14:30.551Z,56.90
2017-09-18T17:17:04.175Z,57.40
2017-09-18T17:19:38.493Z,57.90
2017-09-18T17:22:12.282Z,57.80
2017-09-18T17:24:45.982Z,58.10
2017-09-18T17:27:19.678Z,58.50
2017-09-18T17:29:53.254Z,59.00
2017-09-18T17:32:26.897Z,59.30
2017-09-18T17:35:00.438Z,59.60
2017-09-18T17:37:34.052Z,59.90
2017-09-18T17:40:07.653Z,60.10
2017-09-18T17:42:41.190Z,60.40
2017-09-18T17:45:14.823Z,60.60
2017-09-18T17:47:48.305Z,61.10
2017-09-18T17:50:21.837Z,61.10
2017-09-18T17:52:55.490Z,60.50
2017-09-18T17:55:29.042Z,59.60
2017-09-18T17:58:02.682Z,59.20
2017-09-18T18:00:36.121Z,59.20
2017-09-18T18:03:09.667Z,58.80
2017-09-18T18:05:44.065Z,58.40
2017-09-18T18:08:18.486Z,58.80
2017-09-18T18:10:52.698Z,58.50
2017-09-18T18:13:26.671Z,58.40
2017-09-18T18:16:01.150Z,58.30
2017-09-18T18:18:35.350Z,58.10
2017-09-18T18:21:09.563Z,58.20
2017-09-18T18:23:43.169Z,58.10
2017-09-18T18:26:16.799Z,58.20
2017-09-18T18:28:50.446Z,58.50
2017-09-18T18:31:24.083Z,58.40
2017-09-18T18:33:57.714Z,58.60
2017-09-18T18:36:31.345Z,58.30
2017-09-18T18:39:05.706Z,59.00
2017-09-18T18:41:39.170Z,59.00
2017-09-18T18:44:12.718Z,58.20
2017-09-18T18:46:46.238Z,58.90
2017-09-18T18:49:20.522Z,59.10
2017-09-18T18:51:54.730Z,59.50
2017-09-18T18:54:29.050Z,59.60
2017-09-18T18:57:03.261Z,59.80
2017-09-18T18:59:36.806Z,59.70
2017-09-18T19:02:10.479Z,60.10
2017-09-18T19:04:44.013Z,60.40
2017-09-18T19:07:18.270Z,60.40
2017-09-18T19:09:51.838Z,60.40
2017-09-18T19:12:25.345Z,60.50
2017-09-18T19:14:58.942Z,60.60
2017-09-18T19:17:32.593Z,60.20
2017-09-18T19:20:06.247Z,60.30
2017-09-18T19:22:39.681Z,60.20
2017-09-18T19:25:13.226Z,60.30
2017-09-18T19:27:46.663Z,60.10
2017-09-18T19:30:20.198Z,60.50
2017-09-18T19:32:53.659Z,60.70
2017-09-18T19:35:27.181Z,60.70
2017-09-18T19:38:00.779Z,60.70
2017-09-18T19:40:34.319Z,61.00
2017-09-18T19:43:07.753Z,61.10
2017-09-18T19:45:41.279Z,61.30
2017-09-18T19:48:14.866Z,61.20
2017-09-18T19:50:49.281Z,61.40
2017-09-18T19:53:23.484Z,61.80
2017-09-18T19:55:57.026Z,61.70
2017-09-18T19:58:30.630Z,61.90
2017-09-18T20:01:04.982Z,61.90
2017-09-18T20:03:38.410Z,61.90
2017-09-18T20:06:11.953Z,62.10
2017-09-18T20:08:45.505Z,62.10
2017-09-18T20:11:19.014Z,62.20
2017-09-18T20:13:52.526Z,62.10
2017-09-18T20:16:26.218Z,62.10
2017-09-18T20:18:59.811Z,62.00
2017-09-18T20:21:33.358Z,61.80
2017-09-18T20:24:06.826Z,61.80
2017-09-18T20:26:40.351Z,61.90
2017-09-18T20:29:13.870Z,61.80
2017-09-18T20:31:47.536Z,61.70
2017-09-18T20:34:21.106Z,61.30
2017-09-18T20:36:54.644Z,61.40
2017-09-18T20:39:28.285Z,61.10
2017-09-18T20:42:01.974Z,61.20
2017-09-18T20:44:35.491Z,61.20
2017-09-18T20:47:09.050Z,61.30
2017-09-18T20:49:42.571Z,61.30
2017-09-18T20:52:16.218Z,61.20
2017-09-18T20:54:49.739Z,61.00
2017-09-18T20:57:23.378Z,61.10
2017-09-18T20:59:57.022Z,61.30
2017-09-18T21:02:30.646Z,61.20
2017-09-18T21:05:04.193Z,60.90
2017-09-18T21:07:37.819Z,60.60
2017-09-18T21:10:11.910Z,60.50
2017-09-18T21:12:45.558Z,60.60
2017-09-18T21:15:19.148Z,60.60
2017-09-18T21:17:53.596Z,60.40
2017-09-18T21:20:27.604Z,60.40
2017-09-18T21:23:02.890Z,60.40
2017-09-18T21:25:36.654Z,60.40
2017-09-18T21:28:10.171Z,60.10
2017-09-18T21:30:43.813Z,60.20
2017-09-18T21:33:18.049Z,60.10
2017-09-18T21:35:51.549Z,60.10
2017-09-18T21:38:25.158Z,60.00
2017-09-18T21:40:58.654Z,59.90
2017-09-18T21:43:32.254Z,59.90
2017-09-18T21:46:05.809Z,59.80
2017-09-18T21:48:39.438Z,59.80
2017-09-18T21:51:13.067Z,59.90
2017-09-18T21:53:47.573Z,59.90
2017-09-18T21:56:21.386Z,59.90
2017-09-18T21:58:55.050Z,59.80
2017-09-18T22:01:28.793Z,59.80
2017-09-18T22:04:02.597Z,59.50
2017-09-18T22:06:36.151Z,59.40
2017-09-18T22:09:09.857Z,59.40
2017-09-18T22:11:43.458Z,59.40
2017-09-18T22:14:17.070Z,59.30
2017-09-18T22:16:51.310Z,59.40
2017-09-18T22:19:24.866Z,59.00
2017-09-18T22:21:58.514Z,59.20
2017-09-18T22:24:32.009Z,59.00
2017-09-18T22:27:05.618Z,59.00
2017-09-18T22:29:39.322Z,58.90
2017-09-18T22:32:12.818Z,59.00
2017-09-18T22:34:46.626Z,59.00
2017-09-18T22:37:20.317Z,58.70
2017-09-18T22:39:54.010Z,59.00
2017-09-18T22:42:27.625Z,58.90
2017-09-18T22:45:01.214Z,58.90
2017-09-18T22:47:34.937Z,58.90
2017-09-18T22:50:08.550Z,58.80
2017-09-18T22:55:09.797Z,58.50
2017-09-18T22:57:43.394Z,58.50
2017-09-18T23:00:16.953Z,58.60
2017-09-18T23:02:50.542Z,58.50
2017-09-18T23:05:24.225Z,58.50
2017-09-18T23:07:57.942Z,58.90
2017-09-18T23:10:31.602Z,58.50
2017-09-18T23:13:05.051Z,58.30
2017-09-18T23:15:38.815Z,58.30
2017-09-18T23:18:12.365Z,58.10
2017-09-18T23:20:46.697Z,58.40
2017-09-18T23:23:20.316Z,58.30
2017-09-18T23:25:54.130Z,58.30
2017-09-18T23:28:27.599Z,58.20
2017-09-18T23:31:01.105Z,58.30
2017-09-18T23:33:34.630Z,58.40
2017-09-18T23:36:08.431Z,58.30
2017-09-18T23:38:42.038Z,58.30
2017-09-18T23:41:15.531Z,58.20
2017-09-18T23:43:49.546Z,58.00
2017-09-18T23:46:23.115Z,58.20
2017-09-18T23:48:56.743Z,58.20
2017-09-18T23:51:30.246Z,58.20
2017-09-18T23:54:03.703Z,58.30
2017-09-18T23:56:37.457Z,58.60
2017-09-18T23:59:11.058Z,58.90
